Time;durP1;ratioP1;P1;durP2;ratioP2;P2;SDS_P1;SDS_P2;PMS_P1;PMS_P2;Temp;Humidity;BMP_temperature;BMP_pressure;BME280_temperature;BME280_humidity;BME280_pressure;Samples;Min_cycle;Max_cycle;Signal;HPM_P1;HPM_P2
2021/07/05 00:01:11;;;;;;;7.68;5.72;;;19.50;70.70;;;;;;4930206;29;20493;-83
2021/07/05 00:03:37;;;;;;;10.95;5.32;;;19.50;70.70;;;;;;4931326;29;20396;-84
2021/07/05 00:06:04;;;;;;;11.73;5.50;;;19.40;70.60;;;;;;4929906;29;20487;-84
2021/07/05 00:08:31;;;;;;;7.60;5.30;;;19.40;70.70;;;;;;4931481;29;20024;-86
2021/07/05 00:10:57;;;;;;;10.90;6.32;;;19.40;70.70;;;;;;4929875;29;20056;-85
2021/07/05 00:13:23;;;;;;;5.25;4.75;;;19.30;70.60;;;;;;4930020;29;20051;-85
2021/07/05 00:15:50;;;;;;;9.70;5.20;;;19.30;70.70;;;;;;4929962;29;20070;-84
2021/07/05 00:18:16;;;;;;;9.40;6.32;;;19.30;70.80;;;;;;4930960;29;20032;-83
2021/07/05 00:20:44;;;;;;;8.52;5.63;;;19.30;70.80;;;;;;4929403;29;20070;-84
2021/07/05 00:23:11;;;;;;;10.15;6.00;;;19.20;70.70;;;;;;4929497;29;20043;-84
2021/07/05 00:25:38;;;;;;;7.03;5.63;;;19.20;70.80;;;;;;4929243;29;20389;-84
2021/07/05 00:28:05;;;;;;;7.40;5.70;;;19.20;70.80;;;;;;4928310;29;20407;-84
2021/07/05 00:30:32;;;;;;;7.10;5.50;;;19.10;71.20;;;;;;4929802;29;20031;-83
2021/07/05 00:32:58;;;;;;;8.02;5.20;;;19.10;70.80;;;;;;4929960;29;20396;-84
2021/07/05 00:35:25;;;;;;;11.02;5.72;;;19.10;70.80;;;;;;4929330;29;20032;-84
2021/07/05 00:37:53;;;;;;;8.15;6.13;;;19.10;70.90;;;;;;4929673;29;20036;-84
2021/07/05 00:40:20;;;;;;;8.93;6.38;;;19.00;70.80;;;;;;4930864;29;20114;-84
2021/07/05 00:42:47;;;;;;;6.40;5.75;;;19.00;70.80;;;;;;4928112;29;20167;-85
2021/07/05 00:45:14;;;;;;;7.38;6.05;;;19.00;70.90;;;;;;4945331;29;20436;-85
2021/07/05 00:47:40;;;;;;;13.05;6.13;;;19.00;70.90;;;;;;4930231;29;20051;-86
2021/07/05 00:50:09;;;;;;;6.55;5.35;;;18.90;70.80;;;;;;4929952;29;20040;-85
2021/07/05 00:52:37;;;;;;;6.55;5.72;;;18.90;70.90;;;;;;4931001;29;20046;-86
2021/07/05 00:55:06;;;;;;;9.07;6.15;;;18.90;70.90;;;;;;4927690;29;20036;-86
2021/07/05 00:57:32;;;;;;;7.30;5.65;;;18.80;70.90;;;;;;4930820;29;20032;-86
2021/07/05 00:59:58;;;;;;;9.55;6.03;;;18.80;70.80;;;;;;4930834;29;20031;-85
2021/07/05 01:02:26;;;;;;;7.85;5.25;;;18.80;70.90;;;;;;4932546;29;20494;-87
2021/07/05 01:04:53;;;;;;;10.73;6.22;;;18.80;71.00;;;;;;4930635;29;20036;-86
2021/07/05 01:07:22;;;;;;;10.43;5.72;;;18.70;70.80;;;;;;4931583;29;20127;-86
2021/07/05 01:09:48;;;;;;;8.07;5.70;;;18.70;70.90;;;;;;4945819;29;20028;-85
2021/07/05 01:12:14;;;;;;;9.80;6.10;;;18.70;71.00;;;;;;4929323;29;20040;-85
2021/07/05 01:14:41;;;;;;;11.65;5.93;;;18.60;70.80;;;;;;4928820;29;20040;-83
2021/07/05 01:17:10;;;;;;;11.27;5.72;;;18.60;70.90;;;;;;4928729;29;20491;-84
2021/07/05 01:19:38;;;;;;;12.25;5.80;;;18.60;70.90;;;;;;4930371;29;20031;-83
2021/07/05 01:22:05;;;;;;;10.15;5.93;;;18.60;70.90;;;;;;4929438;29;20110;-84
2021/07/05 01:24:31;;;;;;;8.30;6.38;;;18.50;70.80;;;;;;4929089;29;20127;-84
2021/07/05 01:26:57;;;;;;;12.80;6.40;;;18.50;70.80;;;;;;4928678;29;20291;-83
2021/07/05 01:29:23;;;;;;;8.38;5.97;;;18.40;70.70;;;;;;4930429;29;20043;-84
2021/07/05 01:31:49;;;;;;;8.27;6.35;;;18.50;71.00;;;;;;4922613;29;20428;-84
2021/07/05 01:34:15;;;;;;;8.70;5.72;;;18.40;70.80;;;;;;4924819;29;20107;-83
2021/07/05 01:36:43;;;;;;;10.35;6.80;;;18.40;70.90;;;;;;4933254;29;20071;-83
2021/07/05 01:39:09;;;;;;;6.03;5.32;;;18.30;70.80;;;;;;4932389;29;20036;-84
2021/07/05 01:41:35;;;;;;;8.48;5.43;;;18.30;70.80;;;;;;4932672;29;20043;-84
2021/07/05 01:44:02;;;;;;;7.45;5.70;;;18.30;70.90;;;;;;4932107;29;20388;-84
2021/07/05 01:46:28;;;;;;;9.02;5.95;;;18.30;70.90;;;;;;4923794;29;20044;-85
2021/07/05 01:48:54;;;;;;;9.32;6.20;;;18.20;70.80;;;;;;4933923;29;20099;-85
2021/07/05 01:51:20;;;;;;;6.75;5.57;;;18.20;70.80;;;;;;4921527;29;20412;-85
2021/07/05 01:53:46;;;;;;;7.97;6.30;;;18.20;70.90;;;;;;4920053;29;20110;-86
2021/07/05 01:56:13;;;;;;;8.88;5.72;;;18.20;70.90;;;;;;4903774;29;20519;-85
2021/07/05 01:58:39;;;;;;;9.23;5.35;;;18.10;70.80;;;;;;4935486;29;20123;-87
2021/07/05 02:01:05;;;;;;;6.60;5.32;;;18.10;70.80;;;;;;4919744;29;20412;-86
2021/07/05 02:03:32;;;;;;;7.43;5.82;;;18.10;70.90;;;;;;4919455;29;20024;-88
2021/07/05 02:05:58;;;;;;;8.70;5.97;;;18.00;70.80;;;;;;4918377;29;20039;-86
2021/07/05 02:08:24;;;;;;;9.32;5.85;;;18.00;70.80;;;;;;4934632;29;20087;-86
2021/07/05 02:10:51;;;;;;;6.85;5.75;;;17.90;70.70;;;;;;4919412;29;20396;-86
2021/07/05 02:13:21;;;;;;;9.27;5.78;;;17.90;70.80;;;;;;4917647;29;20055;-85
2021/07/05 02:15:50;;;;;;;8.18;5.65;;;17.90;70.90;;;;;;4933719;29;20099;-85
2021/07/05 02:18:17;;;;;;;8.77;5.75;;;17.90;70.90;;;;;;4918749;29;20511;-85
2021/07/05 02:20:43;;;;;;;7.78;5.82;;;17.80;71.40;;;;;;4919821;29;20131;-85
2021/07/05 02:23:11;;;;;;;10.10;5.88;;;17.90;71.10;;;;;;4932952;29;20028;-85
2021/07/05 02:25:38;;;;;;;6.60;5.28;;;17.80;70.90;;;;;;4917728;29;20412;-85
2021/07/05 02:28:17;;;;;;;9.18;5.57;;;17.80;70.90;;;;;;4917985;29;20039;-85
2021/07/05 02:30:48;;;;;;;10.75;6.10;;;17.80;71.00;;;;;;4929513;29;20611;-88
2021/07/05 02:33:16;;;;;;;8.32;5.85;;;17.70;70.90;;;;;;4918635;29;20115;-87
2021/07/05 02:35:42;;;;;;;9.55;5.97;;;17.70;70.90;;;;;;4934900;29;20036;-87
2021/07/05 02:38:11;;;;;;;7.22;5.10;;;17.70;70.90;;;;;;4934713;29;20044;-86
2021/07/05 02:40:43;;;;;;;8.38;6.03;;;17.70;71.00;;;;;;4887252;29;20028;-87
2021/07/05 02:43:10;;;;;;;8.15;5.68;;;17.70;71.00;;;;;;4919691;29;20511;-88
2021/07/05 02:45:36;;;;;;;7.13;5.38;;;17.70;71.00;;;;;;4919825;29;20028;-88
2021/07/05 02:48:06;;;;;;;9.23;5.95;;;17.60;70.90;;;;;;4920220;29;20059;-89
2021/07/05 02:50:33;;;;;;;8.75;5.32;;;17.60;70.90;;;;;;4920712;29;20047;-89
2021/07/05 02:53:00;;;;;;;6.68;5.20;;;17.60;71.00;;;;;;4920864;29;20044;-89
2021/07/05 02:55:26;;;;;;;10.30;6.05;;;17.60;71.00;;;;;;4904756;29;20123;-91
2021/07/05 02:57:52;;;;;;;7.78;5.30;;;17.50;70.80;;;;;;4936103;29;20102;-89
2021/07/05 03:00:31;;;;;;;7.47;5.10;;;17.50;70.90;;;;;;4903732;29;20028;-87
2021/07/05 03:02:58;;;;;;;11.35;6.22;;;17.50;71.10;;;;;;4933262;29;20038;-89
2021/07/05 03:05:26;;;;;;;7.90;5.90;;;17.50;71.00;;;;;;4935141;29;20439;-87
2021/07/05 03:10:47;;;;;;;7.95;5.45;;;17.50;71.20;;;;;;5576957;23;20115;-86
2021/07/05 03:13:18;;;;;;;9.18;5.00;;;17.40;71.00;;;;;;4917714;29;20063;-85
2021/07/05 03:15:45;;;;;;;8.90;5.97;;;17.40;71.00;;;;;;4921270;29;20060;-84
2021/07/05 03:18:12;;;;;;;13.70;6.07;;;17.40;71.00;;;;;;4903339;29;20032;-85
2021/07/05 03:20:43;;;;;;;6.78;5.45;;;17.40;71.10;;;;;;4918879;29;20032;-84
2021/07/05 03:23:14;;;;;;;8.68;5.90;;;17.40;71.10;;;;;;4917111;29;20028;-85
2021/07/05 03:25:40;;;;;;;9.48;5.63;;;17.30;71.00;;;;;;4918628;29;20040;-84
2021/07/05 03:28:08;;;;;;;7.55;5.25;;;17.30;71.00;;;;;;4919056;29;20040;-85
2021/07/05 03:30:36;;;;;;;9.20;5.88;;;17.30;71.00;;;;;;4918317;29;20096;-84
2021/07/05 03:33:03;;;;;;;6.82;5.50;;;17.30;71.00;;;;;;4901693;29;20075;-85
2021/07/05 03:35:29;;;;;;;7.30;5.40;;;17.30;71.00;;;;;;4918465;29;20032;-85
2021/07/05 03:37:56;;;;;;;8.45;5.70;;;17.30;71.10;;;;;;4902620;29;20039;-85
2021/07/05 03:40:28;;;;;;;7.70;5.97;;;17.30;71.20;;;;;;4902772;29;20099;-85
2021/07/05 03:42:55;;;;;;;9.25;5.68;;;17.20;71.00;;;;;;4919593;29;20224;-83
2021/07/05 03:45:25;;;;;;;7.97;5.47;;;17.20;71.00;;;;;;4917333;29;20068;-84
2021/07/05 03:47:51;;;;;;;8.35;5.68;;;17.20;71.10;;;;;;4918446;29;20059;-85
2021/07/05 03:50:18;;;;;;;7.50;5.75;;;17.20;71.10;;;;;;4917546;29;20491;-85
2021/07/05 03:52:45;;;;;;;6.13;5.50;;;17.20;71.20;;;;;;4902891;29;20036;-85
2021/07/05 03:55:15;;;;;;;10.73;5.55;;;17.20;71.20;;;;;;4917404;29;20446;-84
2021/07/05 03:57:41;;;;;;;5.40;4.80;;;17.20;71.20;;;;;;4917808;29;20036;-85
2021/07/05 04:00:14;;;;;;;8.27;5.97;;;17.20;71.10;;;;;;4917412;29;20032;-85
2021/07/05 04:02:40;;;;;;;8.50;6.00;;;17.20;71.20;;;;;;4919075;29;20032;-85
2021/07/05 04:05:07;;;;;;;8.57;5.78;;;17.20;71.10;;;;;;4920228;29;20075;-87
2021/07/05 04:07:33;;;;;;;6.80;5.55;;;17.10;70.90;;;;;;4918753;29;20028;-87
2021/07/05 04:10:00;;;;;;;7.00;4.95;;;17.10;70.90;;;;;;4919025;29;20035;-87
2021/07/05 04:12:27;;;;;;;7.10;4.97;;;17.10;71.00;;;;;;4903411;29;20052;-86
2021/07/05 04:14:53;;;;;;;7.30;5.70;;;17.10;71.00;;;;;;4917389;29;20119;-89
2021/07/05 04:17:19;;;;;;;8.18;4.95;;;17.10;71.10;;;;;;4918985;29;20036;-87
2021/07/05 04:19:46;;;;;;;8.20;6.00;;;17.00;70.90;;;;;;4919374;29;20028;-87
2021/07/05 04:22:17;;;;;;;5.88;4.88;;;17.00;70.90;;;;;;4918640;29;20028;-86
2021/07/05 04:24:45;;;;;;;7.60;5.43;;;17.00;71.00;;;;;;4918296;29;20091;-84
2021/07/05 04:27:13;;;;;;;8.40;5.72;;;16.90;70.80;;;;;;4918067;29;20468;-86
2021/07/05 04:29:40;;;;;;;7.93;5.18;;;16.90;70.90;;;;;;4916361;29;20036;-84
2021/07/05 04:32:07;;;;;;;7.95;6.10;;;16.90;71.00;;;;;;4918339;29;20048;-86
2021/07/05 04:34:34;;;;;;;6.55;5.13;;;16.90;71.00;;;;;;4916623;29;20495;-83
2021/07/05 04:37:00;;;;;;;7.22;5.07;;;16.80;70.80;;;;;;4919122;29;20027;-83
2021/07/05 04:39:26;;;;;;;6.20;5.47;;;16.80;70.80;;;;;;4917864;29;20058;-83
2021/07/05 04:41:53;;;;;;;7.35;5.20;;;16.80;70.90;;;;;;4915540;29;20032;-84
2021/07/05 04:44:20;;;;;;;8.07;5.88;;;16.80;70.90;;;;;;4916526;29;20032;-84
2021/07/05 04:46:48;;;;;;;10.43;5.57;;;16.70;70.70;;;;;;4916989;29;20067;-86
2021/07/05 04:49:18;;;;;;;9.15;5.50;;;16.70;70.80;;;;;;4911833;29;20032;-88
2021/07/05 04:51:45;;;;;;;8.60;5.43;;;16.70;70.80;;;;;;4884466;29;20039;-87
2021/07/05 04:54:11;;;;;;;6.65;5.47;;;16.70;70.80;;;;;;4915313;29;20394;-86
2021/07/05 04:56:38;;;;;;;7.15;5.30;;;16.70;70.80;;;;;;4900901;29;20035;-88
2021/07/05 04:59:06;;;;;;;7.90;5.63;;;16.70;70.80;;;;;;4929660;29;20028;-88
2021/07/05 05:01:34;;;;;;;5.90;5.40;;;16.70;70.90;;;;;;4933063;29;20036;-86
2021/07/05 05:04:00;;;;;;;6.43;5.13;;;16.70;70.90;;;;;;4918431;29;20032;-88
2021/07/05 05:06:26;;;;;;;5.60;5.10;;;16.70;71.00;;;;;;4911848;29;20051;-87
2021/07/05 05:08:53;;;;;;;7.18;4.88;;;16.70;71.00;;;;;;4925744;29;20050;-85
2021/07/05 05:11:20;;;;;;;7.75;5.22;;;16.70;71.00;;;;;;4945170;29;20095;-86
2021/07/05 05:13:46;;;;;;;7.72;6.20;;;16.80;71.10;;;;;;4929834;29;20042;-85
2021/07/05 05:16:12;;;;;;;8.27;5.45;;;16.80;71.10;;;;;;4945573;29;20457;-85
2021/07/05 05:18:39;;;;;;;7.35;5.63;;;16.80;71.00;;;;;;4914283;29;20034;-87
2021/07/05 05:21:05;;;;;;;6.75;5.07;;;16.90;71.10;;;;;;4930252;29;20445;-86
2021/07/05 05:23:32;;;;;;;7.32;5.65;;;16.90;71.60;;;;;;4930995;29;20036;-85
2021/07/05 05:25:58;;;;;;;6.80;5.32;;;17.00;71.20;;;;;;4929784;29;20035;-87
2021/07/05 05:28:24;;;;;;;6.03;5.40;;;17.00;71.10;;;;;;4932346;29;20434;-93
2021/07/05 05:30:50;;;;;;;6.28;4.97;;;17.00;71.10;;;;;;4913190;29;20434;-83
2021/07/05 05:33:16;;;;;;;9.52;6.03;;;17.00;71.00;;;;;;4918683;29;20132;-83
2021/07/05 05:35:42;;;;;;;7.72;5.10;;;17.00;71.00;;;;;;4910259;29;20123;-82
2021/07/05 05:38:08;;;;;;;6.80;5.03;;;17.00;71.00;;;;;;4919087;29;20443;-82
2021/07/05 05:40:37;;;;;;;6.70;5.38;;;17.00;71.00;;;;;;4928759;29;20075;-78
2021/07/05 05:43:08;;;;;;;9.00;5.18;;;17.00;71.00;;;;;;4929092;29;20514;-77
2021/07/05 05:45:37;;;;;;;6.72;5.25;;;17.00;71.10;;;;;;4927786;29;20086;-78
2021/07/05 05:48:03;;;;;;;8.43;5.63;;;17.00;71.10;;;;;;4928206;29;20163;-77
2021/07/05 05:50:29;;;;;;;9.20;5.05;;;17.00;71.10;;;;;;4929675;29;20195;-77
2021/07/05 05:52:55;;;;;;;6.25;4.65;;;17.00;71.10;;;;;;4928823;29;20130;-77
2021/07/05 05:55:21;;;;;;;7.45;5.55;;;17.00;71.10;;;;;;4929064;29;20031;-77
2021/07/05 05:57:48;;;;;;;14.85;6.97;;;17.00;71.40;;;;;;4929313;29;20387;-76
2021/07/05 06:00:19;;;;;;;10.80;6.95;;;17.00;71.70;;;;;;4928886;29;20299;-76
2021/07/05 06:02:45;;;;;;;8.52;6.10;;;17.10;72.20;;;;;;4928885;29;20036;-77
2021/07/05 06:05:12;;;;;;;8.13;5.93;;;17.20;72.60;;;;;;4927737;29;20104;-77
2021/07/05 06:07:39;;;;;;;11.32;6.75;;;17.20;72.70;;;;;;4928446;29;20039;-78
2021/07/05 06:10:06;;;;;;;10.93;5.53;;;17.30;72.90;;;;;;4927942;29;20031;-77
2021/07/05 06:12:33;;;;;;;9.02;6.30;;;17.30;73.00;;;;;;4926851;29;20058;-81
2021/07/05 06:15:01;;;;;;;6.28;5.50;;;17.40;73.20;;;;;;4917192;29;20039;-82
2021/07/05 06:17:27;;;;;;;7.93;5.38;;;17.40;73.20;;;;;;4910929;29;20043;-80
2021/07/05 06:19:53;;;;;;;9.93;5.90;;;17.40;73.20;;;;;;4929634;29;20028;-81
2021/07/05 06:22:29;;;;;;;9.35;5.88;;;17.50;73.50;;;;;;4927339;29;20491;-81
2021/07/05 06:24:57;;;;;;;9.30;5.82;;;17.50;73.50;;;;;;4929471;29;20036;-82
2021/07/05 06:27:23;;;;;;;7.43;6.13;;;17.50;73.50;;;;;;4928984;29;20061;-79
2021/07/05 06:29:50;;;;;;;7.22;5.10;;;17.50;73.50;;;;;;4928344;29;20035;-78
2021/07/05 06:32:16;;;;;;;8.43;5.00;;;17.60;73.70;;;;;;4929028;29;20051;-77
2021/07/05 06:34:42;;;;;;;9.77;5.93;;;17.60;73.70;;;;;;4928750;29;20059;-79
2021/07/05 06:37:08;;;;;;;6.68;4.88;;;17.60;73.70;;;;;;4927651;29;20060;-80
2021/07/05 06:39:34;;;;;;;8.25;5.78;;;17.70;73.90;;;;;;4930543;29;20051;-77
2021/07/05 06:42:00;;;;;;;9.77;5.88;;;17.80;74.10;;;;;;4931971;29;20570;-81
2021/07/05 06:44:26;;;;;;;12.38;5.70;;;17.80;74.10;;;;;;4930965;29;20063;-75
2021/07/05 06:46:52;;;;;;;10.10;6.13;;;18.00;74.50;;;;;;4930906;29;20096;-76
2021/07/05 06:49:18;;;;;;;11.05;5.80;;;18.10;74.40;;;;;;4931842;29;20039;-75
2021/07/05 06:51:49;;;;;;;9.00;5.15;;;18.20;74.40;;;;;;4931697;29;20039;-76
2021/07/05 06:54:15;;;;;;;7.93;5.20;;;18.20;74.20;;;;;;4931628;29;20027;-75
2021/07/05 06:56:41;;;;;;;11.60;5.72;;;18.30;74.20;;;;;;4931830;29;20059;-77
2021/07/05 06:59:08;;;;;;;6.70;4.78;;;18.30;74.10;;;;;;4931735;29;20064;-76
2021/07/05 07:01:34;;;;;;;8.15;5.40;;;18.40;74.20;;;;;;4930334;29;20028;-77
2021/07/05 07:04:01;;;;;;;8.15;4.95;;;18.40;74.20;;;;;;4930488;29;20019;-76
2021/07/05 07:06:27;;;;;;;8.30;5.10;;;18.50;74.20;;;;;;4932120;29;20182;-76
2021/07/05 07:08:53;;;;;;;9.35;5.05;;;18.60;74.30;;;;;;4930732;29;20036;-75
2021/07/05 07:11:20;;;;;;;10.73;5.70;;;18.70;74.50;;;;;;4931820;29;20051;-79
2021/07/05 07:13:47;;;;;;;7.90;4.35;;;18.80;74.40;;;;;;4931954;29;20060;-78
2021/07/05 07:16:15;;;;;;;8.02;4.57;;;19.00;74.60;;;;;;4930930;29;20059;-78
2021/07/05 07:18:57;;;;;;;7.32;4.20;;;19.20;74.80;;;;;;4931498;29;20518;-79
2021/07/05 07:21:23;;;;;;;6.22;4.80;;;19.50;75.40;;;;;;4946631;29;20032;-78
2021/07/05 07:23:50;;;;;;;6.38;4.43;;;20.00;75.90;;;;;;4931050;29;20027;-76
2021/07/05 07:26:17;;;;;;;11.43;5.40;;;20.50;76.10;;;;;;4931845;29;20318;-76
2021/07/05 07:28:43;;;;;;;6.13;4.63;;;21.10;76.20;;;;;;4912356;29;20032;-77
2021/07/05 07:31:09;;;;;;;11.98;4.82;;;21.60;75.70;;;;;;4912228;29;20147;-76
2021/07/05 07:33:35;;;;;;;6.38;4.30;;;22.10;74.80;;;;;;4923070;29;20179;-78
2021/07/05 07:36:02;;;;;;;7.03;4.65;;;22.40;74.10;;;;;;4931450;29;20125;-76
2021/07/05 07:38:34;;;;;;;6.63;3.90;;;22.60;73.40;;;;;;4929324;29;20062;-76
2021/07/05 07:41:00;;;;;;;7.90;3.72;;;22.70;72.70;;;;;;4946066;29;20091;-75
2021/07/05 07:43:26;;;;;;;8.15;4.40;;;22.80;72.60;;;;;;4930874;29;20534;-77
2021/07/05 07:45:52;;;;;;;12.63;4.05;;;23.20;72.70;;;;;;4930180;29;20031;-76
2021/07/05 07:48:18;;;;;;;7.38;4.63;;;23.40;72.00;;;;;;4930911;29;20083;-76
2021/07/05 07:50:44;;;;;;;7.00;3.95;;;23.40;71.30;;;;;;4928452;29;20522;-76
2021/07/05 07:53:10;;;;;;;9.65;3.53;;;23.30;70.60;;;;;;4930748;29;20046;-76
2021/07/05 07:55:36;;;;;;;7.70;3.58;;;23.20;70.20;;;;;;4929706;29;20035;-76
2021/07/05 07:58:03;;;;;;;16.05;4.05;;;23.00;69.80;;;;;;4929658;29;20099;-76
2021/07/05 08:00:30;;;;;;;8.18;3.45;;;22.80;69.50;;;;;;4930769;29;20421;-75
2021/07/05 08:02:56;;;;;;;9.63;3.70;;;22.70;69.40;;;;;;4929260;29;20031;-76
2021/07/05 08:05:22;;;;;;;6.15;3.30;;;22.60;69.30;;;;;;4929706;29;20030;-78
2021/07/05 08:07:48;;;;;;;7.72;3.17;;;22.50;69.10;;;;;;4930324;29;20043;-78
2021/07/05 08:10:16;;;;;;;7.80;3.63;;;22.50;69.20;;;;;;4930887;29;20027;-76
2021/07/05 08:12:43;;;;;;;8.30;3.50;;;22.80;69.70;;;;;;4945160;29;20075;-77
2021/07/05 08:15:11;;;;;;;7.65;3.60;;;23.20;69.40;;;;;;4931295;29;20549;-77
2021/07/05 08:17:37;;;;;;;8.02;3.40;;;23.70;69.20;;;;;;4930138;29;20043;-77
2021/07/05 08:20:05;;;;;;;6.28;3.25;;;24.30;68.90;;;;;;4929207;29;20034;-77
2021/07/05 08:22:32;;;;;;;6.45;3.35;;;24.90;68.20;;;;;;4930420;29;20387;-78
2021/07/05 08:24:58;;;;;;;6.97;3.17;;;25.30;67.40;;;;;;4930715;29;20036;-77
2021/07/05 08:27:24;;;;;;;5.00;2.40;;;25.90;66.40;;;;;;4930736;29;20036;-77
2021/07/05 08:29:51;;;;;;;9.50;3.22;;;26.50;65.10;;;;;;4915766;29;20025;-78
2021/07/05 08:32:17;;;;;;;5.93;2.55;;;27.10;63.80;;;;;;4893022;29;20041;-79
2021/07/05 08:34:43;;;;;;;6.10;2.50;;;27.60;62.60;;;;;;4929002;29;20086;-77
2021/07/05 08:37:09;;;;;;;7.63;2.88;;;28.10;61.50;;;;;;4929657;29;20538;-79
2021/07/05 08:39:35;;;;;;;4.85;2.70;;;28.60;60.50;;;;;;4929867;29;20107;-79
2021/07/05 08:42:01;;;;;;;4.97;2.90;;;29.20;59.40;;;;;;4930131;29;20491;-79
2021/07/05 08:44:28;;;;;;;4.63;2.72;;;29.60;58.20;;;;;;4944452;29;20109;-78
2021/07/05 08:46:55;;;;;;;7.47;2.30;;;29.80;57.20;;;;;;4927910;29;20092;-79
2021/07/05 08:49:21;;;;;;;4.55;2.35;;;29.60;57.10;;;;;;4930625;29;20174;-79
2021/07/05 08:51:47;;;;;;;5.32;2.47;;;29.30;57.40;;;;;;4929585;29;20573;-78
2021/07/05 08:54:13;;;;;;;4.38;2.45;;;29.40;57.10;;;;;;4912259;29;20332;-78
2021/07/05 08:56:39;;;;;;;4.15;2.40;;;29.50;56.50;;;;;;4911555;29;20134;-78
2021/07/05 08:59:05;;;;;;;4.32;2.63;;;29.20;56.80;;;;;;4923257;29;20124;-81
2021/07/05 09:01:31;;;;;;;5.45;2.38;;;29.30;56.60;;;;;;4929798;29;20122;-77
2021/07/05 09:03:57;;;;;;;6.72;2.58;;;29.30;56.20;;;;;;4929382;29;20032;-81
2021/07/05 09:06:24;;;;;;;7.57;2.45;;;29.20;56.10;;;;;;4944603;29;20476;-76
2021/07/05 09:08:56;;;;;;;4.18;2.13;;;28.80;56.10;;;;;;4927943;29;20057;-76
2021/07/05 09:11:41;;;;;;;5.85;2.45;;;28.30;56.90;;;;;;4928474;29;20138;-77
2021/07/05 09:14:17;;;;;;;3.53;2.20;;;28.00;57.40;;;;;;4928828;29;20207;-78
2021/07/05 09:16:45;;;;;;;3.17;2.00;;;27.70;58.10;;;;;;4943077;29;20340;-75
2021/07/05 09:19:19;;;;;;;4.22;2.30;;;27.60;58.60;;;;;;4927019;29;20031;-75
2021/07/05 09:21:52;;;;;;;6.65;2.38;;;27.60;58.70;;;;;;4929692;29;20032;-77
2021/07/05 09:24:27;;;;;;;4.80;1.92;;;27.60;58.90;;;;;;4928649;29;20063;-75
2021/07/05 09:27:09;;;;;;;4.72;2.10;;;27.80;58.60;;;;;;4929136;29;20035;-75
2021/07/05 09:29:38;;;;;;;7.38;2.42;;;28.20;58.20;;;;;;4928953;29;20032;-76
2021/07/05 09:32:07;;;;;;;5.10;2.03;;;28.40;57.70;;;;;;4927649;29;20513;-76
2021/07/05 09:34:39;;;;;;;6.43;2.10;;;28.60;57.40;;;;;;4928681;29;20031;-77
2021/07/05 09:37:24;;;;;;;3.05;1.80;;;28.70;57.00;;;;;;4920285;29;20551;-79
2021/07/05 09:40:12;;;;;;;5.05;1.98;;;28.70;56.90;;;;;;4900046;29;20297;-78
2021/07/05 09:42:48;;;;;;;3.10;1.60;;;28.80;56.80;;;;;;4912605;29;20062;-79
2021/07/05 09:45:22;;;;;;;4.65;2.10;;;28.80;56.60;;;;;;4928777;29;20147;-78
2021/07/05 09:48:12;;;;;;;4.40;1.73;;;28.90;56.80;;;;;;4926991;29;20020;-78
2021/07/05 09:50:38;;;;;;;3.03;1.85;;;29.00;57.00;;;;;;4928982;29;20031;-77
2021/07/05 09:53:24;;;;;;;4.38;1.73;;;29.10;57.20;;;;;;4928841;29;20038;-78
2021/07/05 09:55:50;;;;;;;6.25;2.20;;;29.10;57.00;;;;;;4929279;29;20036;-75
2021/07/05 09:58:16;;;;;;;4.78;1.80;;;29.10;57.10;;;;;;4942380;29;20071;-78
2021/07/05 10:00:42;;;;;;;2.58;1.60;;;29.10;57.30;;;;;;4927627;29;20040;-76
2021/07/05 10:03:09;;;;;;;3.28;1.58;;;29.10;57.30;;;;;;4928538;29;20355;-77
2021/07/05 10:05:44;;;;;;;4.85;2.20;;;29.10;57.30;;;;;;4929220;29;20087;-76
2021/07/05 10:08:12;;;;;;;5.50;2.22;;;29.20;57.30;;;;;;4940099;29;20032;-75
2021/07/05 10:10:43;;;;;;;3.45;2.10;;;29.30;57.10;;;;;;4928263;29;20027;-75
2021/07/05 10:13:20;;;;;;;3.85;1.95;;;29.40;56.90;;;;;;4929415;29;20392;-74
2021/07/05 10:15:49;;;;;;;4.18;2.10;;;29.60;56.80;;;;;;4916696;29;20036;-75
2021/07/05 10:18:16;;;;;;;3.65;2.15;;;29.70;56.70;;;;;;4919457;29;20032;-75
2021/07/05 10:20:45;;;;;;;5.00;2.17;;;29.80;56.50;;;;;;4916264;29;20481;-75
2021/07/05 10:23:16;;;;;;;3.20;1.60;;;29.90;56.30;;;;;;4919797;29;20031;-75
2021/07/05 10:25:48;;;;;;;4.20;2.20;;;30.10;56.10;;;;;;4931713;29;20036;-74
2021/07/05 10:28:15;;;;;;;2.83;1.60;;;30.20;55.90;;;;;;4944231;29;20035;-74
2021/07/05 10:30:43;;;;;;;3.92;2.13;;;30.20;55.80;;;;;;4931911;29;20384;-76
2021/07/05 10:33:09;;;;;;;3.45;1.95;;;30.20;55.70;;;;;;4931713;29;20101;-74
2021/07/05 10:35:48;;;;;;;5.57;2.30;;;30.30;55.70;;;;;;4932124;29;20102;-74
2021/07/05 10:38:35;;;;;;;3.55;1.98;;;30.40;55.50;;;;;;4932182;29;20238;-76
2021/07/05 10:41:07;;;;;;;5.28;2.25;;;30.50;55.50;;;;;;4931073;29;20083;-75
2021/07/05 10:44:04;;;;;;;6.32;2.50;;;30.60;55.30;;;;;;4930944;29;20515;-75
2021/07/05 10:46:54;;;;;;;4.63;2.03;;;30.70;55.20;;;;;;4932162;29;20036;-75
2021/07/05 10:49:32;;;;;;;3.53;2.05;;;30.80;55.10;;;;;;4931459;29;20042;-75
2021/07/05 10:52:01;;;;;;;2.78;1.70;;;30.80;54.90;;;;;;4932066;29;20138;-75
2021/07/05 10:54:53;;;;;;;3.25;1.70;;;30.90;54.70;;;;;;4931854;29;20031;-76
2021/07/05 10:57:46;;;;;;;3.88;1.77;;;31.00;54.60;;;;;;4931486;29;20516;-77
2021/07/05 11:00:18;;;;;;;3.60;1.88;;;31.10;54.50;;;;;;4931625;29;20035;-76
2021/07/05 11:02:47;;;;;;;4.93;2.10;;;31.30;54.50;;;;;;4931260;29;20134;-75
2021/07/05 11:05:34;;;;;;;2.58;1.83;;;31.40;54.40;;;;;;4930513;29;20027;-75
2021/07/05 11:08:21;;;;;;;2.72;1.70;;;31.50;54.20;;;;;;4946309;29;20043;-75
2021/07/05 11:10:49;;;;;;;2.45;1.65;;;31.60;54.10;;;;;;4930168;29;20052;-75
2021/07/05 11:13:19;;;;;;;6.68;2.10;;;31.70;54.00;;;;;;4931045;29;20035;-75
2021/07/05 11:15:59;;;;;;;3.80;2.10;;;31.80;53.90;;;;;;4931646;29;20869;-78
2021/07/05 11:18:41;;;;;;;3.78;1.70;;;31.90;53.80;;;;;;4931061;29;20044;-75
2021/07/05 11:21:29;;;;;;;3.88;1.80;;;32.00;53.60;;;;;;4930448;29;20039;-80
2021/07/05 11:23:59;;;;;;;2.20;1.50;;;32.10;53.60;;;;;;4929708;29;20160;-79
2021/07/05 11:26:29;;;;;;;3.78;1.80;;;32.20;53.50;;;;;;4929114;29;20098;-80
2021/07/05 11:29:17;;;;;;;6.50;1.80;;;32.30;53.30;;;;;;4931194;29;20060;-77
2021/07/05 11:31:58;;;;;;;3.10;1.85;;;32.30;53.20;;;;;;4915381;29;20044;-77
2021/07/05 11:34:32;;;;;;;3.88;1.38;;;32.40;53.10;;;;;;4916218;29;20024;-79
2021/07/05 11:37:27;;;;;;;4.20;1.50;;;32.50;53.10;;;;;;4912748;29;20244;-79
2021/07/05 11:39:54;;;;;;;4.18;2.00;;;32.60;53.10;;;;;;4906745;29;20036;-79
2021/07/05 11:42:22;;;;;;;3.53;1.85;;;32.50;53.00;;;;;;4912492;29;20028;-78
2021/07/05 11:44:54;;;;;;;6.05;1.63;;;32.40;53.10;;;;;;4929650;29;20039;-77
2021/07/05 11:47:48;;;;;;;3.28;1.58;;;32.20;50.90;;;;;;4931000;29;20031;-77
2021/07/05 11:50:17;;;;;;;4.43;1.80;;;31.70;49.90;;;;;;4910201;29;20039;-77
2021/07/05 11:53:04;;;;;;;5.93;1.60;;;31.10;50.30;;;;;;4915568;29;20039;-75
2021/07/05 11:55:33;;;;;;;3.53;1.70;;;30.50;49.40;;;;;;4930992;29;20083;-78
2021/07/05 11:58:07;;;;;;;7.05;2.67;;;29.90;49.60;;;;;;4930289;29;20059;-78
2021/07/05 12:00:36;;;;;;;5.40;1.80;;;29.50;49.90;;;;;;4929189;29;20534;-77
2021/07/05 12:03:09;;;;;;;3.63;1.77;;;29.30;50.30;;;;;;4930556;29;20034;-77
2021/07/05 12:05:44;;;;;;;5.10;2.17;;;29.10;50.30;;;;;;4945161;29;20040;-77
2021/07/05 12:08:11;;;;;;;4.57;1.80;;;29.10;50.50;;;;;;4930306;29;20048;-78
2021/07/05 12:10:40;;;;;;;7.40;1.80;;;29.10;50.70;;;;;;4930275;29;20069;-78
2021/07/05 12:13:18;;;;;;;3.75;1.70;;;29.10;50.80;;;;;;4929729;29;20126;-79
2021/07/05 12:16:07;;;;;;;2.67;1.60;;;29.20;51.00;;;;;;4944809;29;20364;-78
2021/07/05 12:18:33;;;;;;;3.53;1.80;;;29.30;51.10;;;;;;4930244;29;20036;-77
2021/07/05 12:21:03;;;;;;;2.97;1.75;;;29.50;51.20;;;;;;4928165;29;20043;-77
2021/07/05 12:23:34;;;;;;;5.43;2.28;;;29.60;51.20;;;;;;4928609;29;20039;-77
2021/07/05 12:26:22;;;;;;;3.97;1.70;;;29.60;51.80;;;;;;4927509;29;20045;-76
2021/07/05 12:29:06;;;;;;;4.13;1.90;;;29.70;51.30;;;;;;4927081;29;20038;-75
2021/07/05 12:31:33;;;;;;;2.92;1.65;;;29.60;51.40;;;;;;4929252;29;20099;-74
2021/07/05 12:34:02;;;;;;;4.18;1.60;;;29.50;51.50;;;;;;4927382;29;20035;-74
2021/07/05 12:36:31;;;;;;;3.83;2.10;;;29.40;51.80;;;;;;4909871;29;20554;-76
2021/07/05 12:39:08;;;;;;;3.85;1.83;;;29.20;51.90;;;;;;4908892;29;20043;-76
2021/07/05 12:41:37;;;;;;;3.33;1.88;;;29.00;52.00;;;;;;4916520;29;20031;-75
2021/07/05 12:44:14;;;;;;;5.07;2.03;;;28.90;52.40;;;;;;4928984;29;20440;-76
2021/07/05 12:46:41;;;;;;;3.28;1.63;;;28.70;52.60;;;;;;4920013;29;20043;-77
2021/07/05 12:49:09;;;;;;;4.28;1.88;;;28.50;52.80;;;;;;4909605;29;20095;-77
2021/07/05 12:51:36;;;;;;;2.38;1.67;;;28.40;53.10;;;;;;4912517;29;20422;-76
2021/07/05 12:54:19;;;;;;;4.63;1.80;;;28.30;53.40;;;;;;4929803;29;20122;-76
2021/07/05 12:56:45;;;;;;;3.53;2.00;;;28.20;53.60;;;;;;4944447;29;20035;-77
2021/07/05 12:59:19;;;;;;;4.50;2.10;;;28.30;53.80;;;;;;4913300;29;20333;-77